Terminal Aerodrome Forecast
Issued by NWS

Home | Current Version | Previous Version | Text Only | Print | Product List | Glossary On
Versions: 1 2 3 4 5 6 7 8 9 10 11 12 13 14 15 16 17 18 19
255
FTUS43 KBIS 222335
TAFDIK
TAF
KDIK 222335Z 2300/2324 28013G21KT P6SM VCSH BKN080 WS020/26040KT
     FM230200 27018G26KT P6SM BKN120 WS020/27045KT
     FM230700 29021G30KT P6SM SCT140 WS020/30045KT
     FM231500 31026G36KT P6SM FEW250=

USA.gov is the U.S. government's official web portal to all federal, state and local government web resources and services.